createdAt,value
2022-10-20T00:04:12.801Z,355.26
2022-10-20T00:09:20.025Z,355.21
2022-10-20T00:14:27.201Z,355.13
2022-10-20T00:19:34.410Z,355.40
2022-10-20T00:24:41.643Z,355.16
2022-10-20T00:29:48.833Z,354.78
2022-10-20T00:34:56.018Z,355.92
2022-10-20T00:40:03.255Z,355.98
2022-10-20T00:45:10.486Z,356.45
2022-10-20T00:50:17.749Z,357.77
2022-10-20T00:55:24.972Z,358.06
2022-10-20T01:00:32.162Z,358.39
2022-10-20T01:05:39.403Z,358.19
2022-10-20T01:10:46.645Z,358.92
2022-10-20T01:15:53.864Z,359.43
2022-10-20T01:21:03.800Z,359.32
2022-10-20T01:26:11.072Z,360.02
2022-10-20T01:31:18.266Z,360.60
2022-10-20T01:36:25.454Z,360.65
2022-10-20T01:41:32.677Z,360.07
2022-10-20T01:46:39.878Z,360.45
2022-10-20T01:51:47.120Z,360.85
2022-10-20T01:56:54.618Z,361.11
2022-10-20T02:02:01.905Z,362.27
2022-10-20T02:07:09.174Z,362.44
2022-10-20T02:12:16.441Z,362.67
2022-10-20T02:17:23.652Z,362.76
2022-10-20T02:22:30.842Z,362.73
2022-10-20T02:27:38.117Z,362.96
2022-10-20T02:32:45.322Z,363.22
2022-10-20T02:37:52.522Z,363.15
2022-10-20T02:42:59.698Z,363.23
2022-10-20T02:48:07.929Z,363.50
2022-10-20T02:53:14.198Z,363.52
2022-10-20T02:58:21.468Z,363.53
2022-10-20T03:03:28.656Z,363.43
2022-10-20T03:08:35.890Z,363.35
2022-10-20T03:13:43.082Z,362.70
2022-10-20T03:18:50.297Z,363.25
2022-10-20T03:23:57.652Z,363.31
2022-10-20T03:29:04.906Z,364.31
2022-10-20T03:34:12.088Z,364.50
2022-10-20T03:39:19.292Z,363.97
2022-10-20T03:44:26.511Z,364.00
2022-10-20T03:49:33.697Z,364.77
2022-10-20T03:54:40.937Z,365.45
2022-10-20T03:59:48.121Z,366.00
2022-10-20T04:04:55.332Z,366.20
2022-10-20T04:10:02.553Z,366.11
2022-10-20T04:15:09.803Z,365.83
2022-10-20T04:20:17.030Z,366.16
2022-10-20T04:25:24.245Z,366.59
2022-10-20T04:30:31.481Z,366.53
2022-10-20T04:35:38.759Z,366.64
2022-10-20T04:40:45.847Z,367.37
2022-10-20T04:45:53.075Z,366.85
2022-10-20T04:51:00.180Z,367.14
2022-10-20T04:56:07.344Z,366.90
2022-10-20T05:01:14.654Z,367.38
2022-10-20T05:06:21.740Z,368.06
2022-10-20T05:11:28.914Z,368.26
2022-10-20T05:16:36.098Z,368.75
2022-10-20T05:21:43.409Z,369.29
2022-10-20T05:26:50.625Z,369.45
2022-10-20T05:31:57.923Z,369.77
2022-10-20T05:37:05.243Z,370.25
2022-10-20T05:42:12.717Z,370.43
2022-10-20T05:47:19.945Z,370.17
2022-10-20T05:52:32.445Z,369.99
2022-10-20T05:57:39.695Z,369.77
2022-10-20T06:02:46.873Z,370.21
2022-10-20T06:07:54.054Z,370.31
2022-10-20T06:13:02.187Z,370.18
2022-10-20T06:18:09.435Z,370.41
2022-10-20T06:23:17.636Z,371.18
2022-10-20T06:28:24.924Z,370.55
2022-10-20T06:33:34.839Z,370.31
2022-10-20T06:38:42.097Z,369.91
2022-10-20T06:43:49.504Z,370.45
2022-10-20T06:48:58.768Z,370.28
2022-10-20T06:54:03.937Z,371.57
2022-10-20T06:59:11.138Z,372.13
2022-10-20T07:04:18.366Z,372.22
2022-10-20T07:09:25.564Z,372.30
2022-10-20T07:14:32.742Z,372.20
2022-10-20T07:19:39.982Z,371.94
2022-10-20T07:24:47.148Z,372.86
2022-10-20T07:29:54.370Z,373.10
2022-10-20T07:35:01.603Z,373.39
2022-10-20T07:40:08.890Z,373.67
2022-10-20T07:45:16.081Z,374.23
2022-10-20T07:50:23.410Z,374.54
2022-10-20T07:55:38.592Z,373.93
2022-10-20T08:00:37.797Z,374.32
2022-10-20T08:05:45.025Z,374.43
2022-10-20T08:10:52.496Z,374.93
2022-10-20T08:16:02.669Z,375.44
2022-10-20T08:21:07.540Z,375.38
2022-10-20T08:26:19.641Z,375.63
2022-10-20T08:31:27.082Z,375.65
2022-10-20T08:36:34.312Z,375.74
2022-10-20T08:42:06.892Z,375.53
2022-10-20T08:46:53.689Z,374.87
2022-10-20T08:52:02.843Z,374.13
2022-10-20T08:57:10.164Z,372.13
2022-10-20T09:02:21.386Z,372.41
2022-10-20T09:07:28.633Z,371.64
2022-10-20T09:12:50.723Z,371.86
2022-10-20T09:17:58.701Z,370.46
2022-10-20T09:23:21.943Z,368.33
2022-10-20T09:28:14.307Z,367.65
2022-10-20T09:33:28.186Z,365.78
2022-10-20T09:38:35.424Z,366.07
2022-10-20T09:43:42.589Z,365.20
2022-10-20T09:48:49.780Z,365.14
2022-10-20T09:53:57.046Z,364.88
2022-10-20T09:59:04.260Z,363.98
2022-10-20T10:04:11.588Z,365.46
2022-10-20T10:09:18.857Z,363.93
2022-10-20T10:14:25.984Z,363.36
2022-10-20T10:19:33.191Z,362.68
2022-10-20T10:24:40.473Z,362.84
2022-10-20T10:29:47.677Z,362.73
2022-10-20T10:34:54.861Z,363.25
2022-10-20T10:40:02.091Z,362.40
2022-10-20T10:45:09.266Z,363.03
2022-10-20T10:50:16.550Z,363.37
2022-10-20T10:55:47.191Z,363.78
2022-10-20T11:00:31.009Z,363.69
2022-10-20T11:05:38.216Z,363.77
2022-10-20T11:10:45.449Z,364.25
2022-10-20T11:15:52.630Z,365.35
2022-10-20T11:20:59.861Z,366.46
2022-10-20T11:26:07.223Z,367.47
2022-10-20T11:31:14.446Z,366.57
2022-10-20T11:36:21.657Z,367.94
2022-10-20T11:41:28.982Z,368.92
2022-10-20T11:46:36.162Z,369.79
2022-10-20T11:51:43.384Z,368.76
2022-10-20T11:56:50.688Z,369.73
2022-10-20T12:01:57.930Z,371.60
2022-10-20T12:07:05.088Z,370.03
2022-10-20T12:12:12.317Z,370.73
2022-10-20T12:17:19.438Z,370.78
2022-10-20T12:22:26.592Z,370.83
2022-10-20T12:27:33.812Z,372.24
2022-10-20T12:32:40.997Z,373.03
2022-10-20T12:37:48.573Z,373.63
2022-10-20T12:42:55.400Z,370.98
2022-10-20T12:48:02.618Z,371.80
2022-10-20T12:53:09.842Z,373.08
2022-10-20T12:58:20.159Z,373.28
2022-10-20T13:03:27.301Z,374.40
2022-10-20T13:08:34.550Z,374.32
2022-10-20T13:13:41.718Z,373.88
2022-10-20T13:18:48.885Z,372.88
2022-10-20T13:23:56.125Z,374.28
2022-10-20T13:29:03.360Z,374.25
2022-10-20T13:34:10.507Z,376.12
2022-10-20T13:39:17.718Z,378.84
2022-10-20T13:44:31.347Z,377.61
2022-10-20T13:49:36.378Z,379.20
2022-10-20T13:54:43.598Z,380.19
2022-10-20T13:59:52.905Z,379.32
2022-10-20T14:05:00.236Z,380.84
2022-10-20T14:10:07.438Z,381.12
2022-10-20T14:15:14.664Z,382.39
2022-10-20T14:20:21.819Z,383.00
2022-10-20T14:25:29.102Z,383.88
2022-10-20T14:30:40.877Z,384.55
2022-10-20T14:35:43.563Z,385.00
2022-10-20T14:40:50.774Z,384.70
2022-10-20T14:45:58.079Z,385.08
2022-10-20T14:51:05.271Z,384.97
2022-10-20T14:56:12.476Z,383.13
2022-10-20T15:01:19.749Z,381.97
2022-10-20T15:06:26.951Z,383.57
2022-10-20T15:11:34.204Z,383.52
2022-10-20T15:16:41.500Z,384.84
2022-10-20T15:21:48.658Z,384.59
2022-10-20T15:26:56.097Z,384.49
2022-10-20T15:32:03.543Z,384.49
2022-10-20T15:37:10.718Z,384.22
2022-10-20T15:42:17.979Z,385.94
2022-10-20T15:47:25.147Z,386.18
2022-10-20T15:52:33.578Z,387.68
2022-10-20T15:57:40.596Z,386.49
2022-10-20T16:02:47.879Z,387.41
2022-10-20T16:07:55.379Z,388.17
2022-10-20T16:13:02.988Z,387.23
2022-10-20T16:18:10.636Z,387.88
2022-10-20T16:23:17.940Z,387.61
2022-10-20T16:28:25.133Z,386.73
2022-10-20T16:33:32.751Z,386.77
2022-10-20T16:38:40.569Z,386.35
2022-10-20T16:43:47.232Z,386.60
2022-10-20T16:48:54.479Z,387.25
2022-10-20T16:54:03.433Z,387.63
2022-10-20T16:59:10.389Z,388.24
2022-10-20T17:04:18.090Z,388.82
2022-10-20T17:09:25.620Z,388.84
2022-10-20T17:14:33.133Z,389.74
2022-10-20T17:19:40.717Z,388.63
2022-10-20T17:24:48.383Z,387.81
2022-10-20T17:29:55.971Z,388.59
2022-10-20T17:35:03.615Z,388.12
2022-10-20T17:40:11.246Z,388.42
2022-10-20T17:45:18.662Z,389.13
2022-10-20T17:50:26.070Z,389.66
2022-10-20T17:55:33.540Z,389.63
2022-10-20T18:00:55.321Z,389.80
2022-10-20T18:05:48.555Z,389.71
2022-10-20T18:10:56.073Z,388.94
2022-10-20T18:16:03.786Z,387.92
2022-10-20T18:21:11.425Z,386.60
2022-10-20T18:26:19.022Z,385.02
2022-10-20T18:31:26.629Z,384.45
2022-10-20T18:36:34.281Z,384.42
2022-10-20T18:41:41.575Z,384.82
2022-10-20T18:46:49.074Z,383.35
2022-10-20T18:51:56.405Z,382.86
2022-10-20T18:57:03.884Z,380.72
2022-10-20T19:02:12.533Z,379.68
2022-10-20T19:07:20.159Z,379.40
2022-10-20T19:12:27.854Z,378.59
2022-10-20T19:17:35.364Z,379.25
2022-10-20T19:22:43.223Z,378.33
2022-10-20T19:27:50.590Z,377.59
2022-10-20T19:32:58.209Z,377.79
2022-10-20T19:38:05.848Z,377.82
2022-10-20T19:43:14.147Z,379.15
2022-10-20T19:48:21.565Z,379.57
2022-10-20T19:53:29.304Z,380.05
2022-10-20T19:58:38.493Z,380.03
2022-10-20T20:03:44.612Z,380.13
2022-10-20T20:08:52.128Z,379.66
2022-10-20T20:13:59.540Z,380.17
2022-10-20T20:19:07.651Z,379.48
2022-10-20T20:24:15.192Z,379.51
2022-10-20T20:29:22.550Z,379.10
2022-10-20T20:34:29.841Z,378.85
2022-10-20T20:39:37.145Z,379.63
2022-10-20T20:44:44.316Z,378.52
2022-10-20T20:49:51.519Z,377.76
2022-10-20T20:54:58.738Z,377.45
2022-10-20T21:00:05.880Z,377.55
2022-10-20T21:05:13.117Z,377.22
2022-10-20T21:10:20.366Z,377.49
2022-10-20T21:15:27.582Z,378.05
2022-10-20T21:20:34.903Z,378.29
2022-10-20T21:25:42.159Z,378.57
2022-10-20T21:30:49.368Z,379.96
2022-10-20T21:35:56.576Z,381.35
2022-10-20T21:41:03.808Z,380.58
2022-10-20T21:46:10.996Z,382.22
2022-10-20T21:51:18.190Z,383.25
2022-10-20T21:56:25.421Z,385.15
2022-10-20T22:01:32.623Z,387.81
2022-10-20T22:06:39.811Z,386.55
2022-10-20T22:11:47.069Z,388.02
2022-10-20T22:16:54.259Z,389.82
2022-10-20T22:22:01.546Z,391.51
2022-10-20T22:27:15.588Z,390.35
2022-10-20T22:32:16.076Z,390.07
2022-10-20T22:37:23.281Z,391.26
2022-10-20T22:42:30.575Z,390.48
2022-10-20T22:47:37.718Z,391.80
2022-10-20T22:52:44.964Z,393.63
2022-10-20T22:57:52.210Z,393.04
2022-10-20T23:02:59.337Z,393.18
2022-10-20T23:08:06.487Z,393.50
2022-10-20T23:13:13.770Z,393.35
2022-10-20T23:18:20.952Z,393.52
2022-10-20T23:23:28.173Z,393.01
2022-10-20T23:28:35.499Z,393.34
2022-10-20T23:33:42.630Z,393.02
2022-10-20T23:38:49.874Z,393.78
2022-10-20T23:43:57.151Z,393.49
2022-10-20T23:49:04.327Z,394.45
2022-10-20T23:54:11.490Z,394.45
2022-10-20T23:59:18.710Z,394.61
